Santa Isabel, Brazil
Current Conditions -  °F | °C
As of 1:00 PM on Thursday 23 Oct 2014 (Local Time) from SBPJ Reporting Station
Thunderstorm Thunderstorm  
Wind Chill: 82°   Ceiling: Unl
Heat Index: 86°   Visibility: 6mi
Dew Point: 70°   Wind: 7mph
Humidity: 66%   Direction: 170°S
Pressure: 29.91"   Gusts: NA
Location:  11.57°S, 50.67°W
Report Text: SBPJ 231600Z 17006KT 9999 TS VCSH SCT025 FEW030CB 28/21 Q1013
Loading
Personal Weather Stations






























Interactive Weather Map
Tropical Storm Tracking
New forecast layout! Learn more

10-Day Weather Forecast

Advertisements
Track Severe Weather on mobile